sensor_id;sensor_type;location;lat;lon;timestamp;pressure;altitude;pressure_sealevel;temperature;humidity
70458;BME280;57919;56.194;95.716;2023-02-21T00:04:32;100256.97;;;-10.41;68.63
70458;BME280;57919;56.194;95.716;2023-02-21T00:14:53;100241.25;;;-10.42;68.54
70458;BME280;57919;56.194;95.716;2023-02-21T00:25:13;100244.00;;;-10.32;68.61
70458;BME280;57919;56.194;95.716;2023-02-21T00:35:33;100227.44;;;-10.31;68.57
70458;BME280;57919;56.194;95.716;2023-02-21T00:45:54;100241.41;;;-10.30;67.95
70458;BME280;57919;56.194;95.716;2023-02-21T00:56:14;100247.31;;;-10.45;68.24
70458;BME280;57919;56.194;95.716;2023-02-21T01:06:34;100227.00;;;-10.67;67.73
70458;BME280;57919;56.194;95.716;2023-02-21T01:16:54;100245.25;;;-10.70;67.33
70458;BME280;57919;56.194;95.716;2023-02-21T01:27:15;100232.88;;;-10.84;67.68
70458;BME280;57919;56.194;95.716;2023-02-21T01:37:35;100225.19;;;-10.71;67.71
70458;BME280;57919;56.194;95.716;2023-02-21T01:47:55;100229.91;;;-10.43;67.72
70458;BME280;57919;56.194;95.716;2023-02-21T01:58:16;100219.84;;;-10.05;67.53
70458;BME280;57919;56.194;95.716;2023-02-21T02:08:37;100214.28;;;-9.44;68.33
70458;BME280;57919;56.194;95.716;2023-02-21T02:29:19;100217.56;;;-8.23;67.08
70458;BME280;57919;56.194;95.716;2023-02-21T02:39:44;100220.31;;;-7.66;66.31
70458;BME280;57919;56.194;95.716;2023-02-21T02:49:50;100198.22;;;-6.43;65.24
70458;BME280;57919;56.194;95.716;2023-02-21T02:59:53;100178.28;;;-5.46;64.04
70458;BME280;57919;56.194;95.716;2023-02-21T03:20:20;100192.75;;;-4.18;62.04
70458;BME280;57919;56.194;95.716;2023-02-21T03:30:22;100175.53;;;-3.29;60.90
70458;BME280;57919;56.194;95.716;2023-02-21T03:40:31;100175.47;;;-2.32;59.66
70458;BME280;57919;56.194;95.716;2023-02-21T03:50:36;100164.09;;;-1.95;59.00
70458;BME280;57919;56.194;95.716;2023-02-21T04:00:38;100158.84;;;-1.98;57.49
70458;BME280;57919;56.194;95.716;2023-02-21T04:10:40;100173.41;;;-1.40;57.51
70458;BME280;57919;56.194;95.716;2023-02-21T04:20:43;100185.31;;;-1.21;56.55
70458;BME280;57919;56.194;95.716;2023-02-21T04:30:50;100182.41;;;-1.47;56.94
70458;BME280;57919;56.194;95.716;2023-02-21T04:40:53;100176.38;;;-1.54;57.37
70458;BME280;57919;56.194;95.716;2023-02-21T04:50:56;100181.50;;;-0.77;56.23
70458;BME280;57919;56.194;95.716;2023-02-21T05:00:58;100179.06;;;-0.52;55.68
70458;BME280;57919;56.194;95.716;2023-02-21T05:10:59;100162.56;;;-1.31;56.68
70458;BME280;57919;56.194;95.716;2023-02-21T05:21:01;100179.13;;;-1.57;55.00
70458;BME280;57919;56.194;95.716;2023-02-21T05:31:04;100162.13;;;-1.50;56.00
70458;BME280;57919;56.194;95.716;2023-02-21T05:41:06;100172.38;;;-1.72;55.63
70458;BME280;57919;56.194;95.716;2023-02-21T05:51:08;100179.41;;;-1.32;55.59
70458;BME280;57919;56.194;95.716;2023-02-21T06:01:11;100179.97;;;-1.19;55.14
70458;BME280;57919;56.194;95.716;2023-02-21T06:11:14;100175.38;;;-1.13;55.19
70458;BME280;57919;56.194;95.716;2023-02-21T06:21:16;100183.22;;;-1.81;55.12
70458;BME280;57919;56.194;95.716;2023-02-21T06:31:20;100163.06;;;-1.89;56.94
70458;BME280;57919;56.194;95.716;2023-02-21T06:41:27;100175.66;;;-1.60;55.81
70458;BME280;57919;56.194;95.716;2023-02-21T06:51:34;100183.47;;;-1.54;54.69
70458;BME280;57919;56.194;95.716;2023-02-21T07:01:36;100190.94;;;-2.10;56.05
70458;BME280;57919;56.194;95.716;2023-02-21T07:11:38;100173.31;;;-2.56;56.47
70458;BME280;57919;56.194;95.716;2023-02-21T07:21:40;100193.53;;;-2.09;56.89
70458;BME280;57919;56.194;95.716;2023-02-21T07:31:42;100192.03;;;-1.80;56.02
70458;BME280;57919;56.194;95.716;2023-02-21T07:41:44;100188.72;;;-1.90;56.23
70458;BME280;57919;56.194;95.716;2023-02-21T07:51:56;100195.34;;;-2.11;57.15
70458;BME280;57919;56.194;95.716;2023-02-21T08:01:58;100196.31;;;-2.15;57.12
70458;BME280;57919;56.194;95.716;2023-02-21T08:12:00;100188.88;;;-1.98;56.64
70458;BME280;57919;56.194;95.716;2023-02-21T08:22:02;100182.94;;;-2.09;57.25
70458;BME280;57919;56.194;95.716;2023-02-21T08:32:04;100201.44;;;-2.06;56.98
70458;BME280;57919;56.194;95.716;2023-02-21T08:42:06;100177.16;;;-2.28;56.95
70458;BME280;57919;56.194;95.716;2023-02-21T08:52:08;100192.84;;;-2.62;57.74
70458;BME280;57919;56.194;95.716;2023-02-21T09:02:19;100203.69;;;-2.74;58.01
70458;BME280;57919;56.194;95.716;2023-02-21T09:12:21;100209.13;;;-2.83;57.85
70458;BME280;57919;56.194;95.716;2023-02-21T09:22:23;100199.81;;;-3.04;58.33
70458;BME280;57919;56.194;95.716;2023-02-21T09:32:24;100212.63;;;-3.32;58.39
70458;BME280;57919;56.194;95.716;2023-02-21T09:42:30;100195.50;;;-3.65;58.83
70458;BME280;57919;56.194;95.716;2023-02-21T09:52:37;100202.81;;;-3.82;58.07
70458;BME280;57919;56.194;95.716;2023-02-21T10:23:44;100241.00;;;-4.81;59.45
70458;BME280;57919;56.194;95.716;2023-02-21T10:33:49;100248.38;;;-5.19;59.69
70458;BME280;57919;56.194;95.716;2023-02-21T10:43:57;100253.00;;;-5.49;60.31
70458;BME280;57919;56.194;95.716;2023-02-21T10:54:31;100255.84;;;-5.84;59.67
70458;BME280;57919;56.194;95.716;2023-02-21T11:04:34;100252.50;;;-6.15;60.40
70458;BME280;57919;56.194;95.716;2023-02-21T11:14:37;100243.00;;;-6.54;61.54
70458;BME280;57919;56.194;95.716;2023-02-21T11:24:46;100272.84;;;-6.63;61.74
70458;BME280;57919;56.194;95.716;2023-02-21T11:34:50;100276.41;;;-6.96;61.22
70458;BME280;57919;56.194;95.716;2023-02-21T11:45:20;100302.66;;;-7.38;61.05
70458;BME280;57919;56.194;95.716;2023-02-21T11:55:25;100308.75;;;-7.68;61.22
70458;BME280;57919;56.194;95.716;2023-02-21T12:16:12;100325.13;;;-8.38;62.23
70458;BME280;57919;56.194;95.716;2023-02-21T12:26:45;100347.69;;;-8.64;63.38
70458;BME280;57919;56.194;95.716;2023-02-21T12:47:30;100347.31;;;-9.08;64.67
70458;BME280;57919;56.194;95.716;2023-02-21T13:08:05;100355.75;;;-9.40;63.93
70458;BME280;57919;56.194;95.716;2023-02-21T13:18:23;100360.75;;;-9.64;63.57
70458;BME280;57919;56.194;95.716;2023-02-21T13:28:29;100370.63;;;-10.13;63.89
70458;BME280;57919;56.194;95.716;2023-02-21T13:38:36;100381.06;;;-10.77;63.84
70458;BME280;57919;56.194;95.716;2023-02-21T13:48:38;100369.13;;;-11.14;63.41
70458;BME280;57919;56.194;95.716;2023-02-21T13:58:45;100382.25;;;-11.57;63.61
70458;BME280;57919;56.194;95.716;2023-02-21T14:08:48;100390.31;;;-11.92;63.71
70458;BME280;57919;56.194;95.716;2023-02-21T14:18:54;100405.59;;;-12.09;63.76
70458;BME280;57919;56.194;95.716;2023-02-21T14:38:59;100406.13;;;-12.62;64.06
70458;BME280;57919;56.194;95.716;2023-02-21T14:49:27;100420.31;;;-12.86;66.63
70458;BME280;57919;56.194;95.716;2023-02-21T15:10:31;100439.47;;;-12.48;65.86
70458;BME280;57919;56.194;95.716;2023-02-21T15:20:37;100440.16;;;-12.91;65.02
70458;BME280;57919;56.194;95.716;2023-02-21T15:30:40;100443.16;;;-13.43;64.20
70458;BME280;57919;56.194;95.716;2023-02-21T15:40:43;100464.66;;;-13.80;64.23
70458;BME280;57919;56.194;95.716;2023-02-21T15:50:45;100467.19;;;-14.12;64.74
70458;BME280;57919;56.194;95.716;2023-02-21T16:01:08;100486.09;;;-14.46;64.41
70458;BME280;57919;56.194;95.716;2023-02-21T16:11:10;100490.75;;;-14.62;63.95
70458;BME280;57919;56.194;95.716;2023-02-21T16:21:22;100490.50;;;-14.70;63.91
70458;BME280;57919;56.194;95.716;2023-02-21T16:31:30;100511.00;;;-14.78;63.44
70458;BME280;57919;56.194;95.716;2023-02-21T16:41:33;100498.75;;;-15.07;64.20
70458;BME280;57919;56.194;95.716;2023-02-21T16:51:35;100508.28;;;-15.31;64.52
70458;BME280;57919;56.194;95.716;2023-02-21T17:01:37;100501.13;;;-15.39;64.15
70458;BME280;57919;56.194;95.716;2023-02-21T17:11:40;100527.94;;;-15.38;64.44
70458;BME280;57919;56.194;95.716;2023-02-21T17:21:43;100510.31;;;-15.94;64.00
70458;BME280;57919;56.194;95.716;2023-02-21T17:31:45;100531.06;;;-15.94;64.09
70458;BME280;57919;56.194;95.716;2023-02-21T17:41:48;100528.22;;;-16.23;64.16
70458;BME280;57919;56.194;95.716;2023-02-21T17:51:51;100546.13;;;-16.29;64.44
70458;BME280;57919;56.194;95.716;2023-02-21T18:01:53;100561.72;;;-16.48;64.64
70458;BME280;57919;56.194;95.716;2023-02-21T18:11:56;100561.41;;;-16.56;65.38
70458;BME280;57919;56.194;95.716;2023-02-21T18:21:59;100573.28;;;-16.40;65.61
70458;BME280;57919;56.194;95.716;2023-02-21T18:32:06;100570.31;;;-16.49;64.76
70458;BME280;57919;56.194;95.716;2023-02-21T18:42:08;100576.50;;;-16.46;65.19
70458;BME280;57919;56.194;95.716;2023-02-21T18:52:11;100565.81;;;-16.76;65.49
70458;BME280;57919;56.194;95.716;2023-02-21T19:02:16;100572.91;;;-16.91;66.15
70458;BME280;57919;56.194;95.716;2023-02-21T19:12:19;100588.81;;;-16.61;66.68
70458;BME280;57919;56.194;95.716;2023-02-21T19:22:20;100562.59;;;-16.70;66.86
70458;BME280;57919;56.194;95.716;2023-02-21T19:32:22;100606.66;;;-16.69;66.82
70458;BME280;57919;56.194;95.716;2023-02-21T19:42:24;100605.00;;;-16.66;67.17
70458;BME280;57919;56.194;95.716;2023-02-21T19:52:26;100592.53;;;-16.54;67.41
70458;BME280;57919;56.194;95.716;2023-02-21T20:02:29;100590.53;;;-16.41;67.02
70458;BME280;57919;56.194;95.716;2023-02-21T20:12:32;100592.84;;;-16.26;67.14
70458;BME280;57919;56.194;95.716;2023-02-21T20:22:34;100569.13;;;-16.37;66.43
70458;BME280;57919;56.194;95.716;2023-02-21T20:32:35;100580.59;;;-16.30;67.29
70458;BME280;57919;56.194;95.716;2023-02-21T20:42:37;100592.78;;;-16.27;67.94
70458;BME280;57919;56.194;95.716;2023-02-21T20:52:39;100592.09;;;-16.44;67.33
70458;BME280;57919;56.194;95.716;2023-02-21T21:02:42;100588.25;;;-16.33;67.87
70458;BME280;57919;56.194;95.716;2023-02-21T21:12:43;100591.84;;;-16.29;67.71
70458;BME280;57919;56.194;95.716;2023-02-21T21:22:46;100594.44;;;-16.29;67.75
70458;BME280;57919;56.194;95.716;2023-02-21T21:32:48;100585.78;;;-16.30;67.63
70458;BME280;57919;56.194;95.716;2023-02-21T21:42:51;100594.31;;;-16.32;68.66
70458;BME280;57919;56.194;95.716;2023-02-21T21:52:55;100592.47;;;-16.35;68.48
70458;BME280;57919;56.194;95.716;2023-02-21T22:02:59;100581.88;;;-16.41;68.11
70458;BME280;57919;56.194;95.716;2023-02-21T22:13:02;100580.47;;;-16.54;67.21
70458;BME280;57919;56.194;95.716;2023-02-21T22:23:14;100595.63;;;-16.63;67.89
70458;BME280;57919;56.194;95.716;2023-02-21T22:33:17;100601.53;;;-16.67;67.47
70458;BME280;57919;56.194;95.716;2023-02-21T22:43:20;100583.53;;;-16.85;67.75
70458;BME280;57919;56.194;95.716;2023-02-21T22:53:22;100609.09;;;-17.12;67.05
70458;BME280;57919;56.194;95.716;2023-02-21T23:03:24;100613.44;;;-17.30;67.92
70458;BME280;57919;56.194;95.716;2023-02-21T23:13:29;100618.94;;;-17.42;67.82
70458;BME280;57919;56.194;95.716;2023-02-21T23:23:30;100622.06;;;-17.49;68.16
70458;BME280;57919;56.194;95.716;2023-02-21T23:33:32;100646.09;;;-17.51;67.67
70458;BME280;57919;56.194;95.716;2023-02-21T23:43:36;100645.72;;;-17.59;68.45
70458;BME280;57919;56.194;95.716;2023-02-21T23:53:38;100665.19;;;-17.48;67.80
